Time;durP1;ratioP1;P1;durP2;ratioP2;P2;SDS_P1;SDS_P2;PMS_P1;PMS_P2;Temp;Humidity;BMP_temperature;BMP_pressure;BME280_temperature;BME280_humidity;BME280_pressure;Samples;Min_cycle;Max_cycle;Signal;HPM_P1;HPM_P2
2023/03/21 00:00:57;;;;;;;6.03;5.13;;;8.10;26.50;;;;;;5043737;28;20467;-53
2023/03/21 00:03:24;;;;;;;10.33;5.00;;;8.10;27.80;;;;;;5052640;28;20507;-53
2023/03/21 00:05:53;;;;;;;5.47;4.87;;;8.10;21.80;;;;;;5049298;28;20456;-52
2023/03/21 00:08:19;;;;;;;9.40;5.17;;;8.10;26.70;;;;;;5051580;28;20462;-52
2023/03/21 00:10:46;;;;;;;9.10;5.87;;;8.10;25.80;;;;;;5051728;28;20462;-52
2023/03/21 00:13:14;;;;;;;5.43;4.37;;;8.10;43.90;;;;;;5048340;28;20522;-52
2023/03/21 00:15:49;;;;;;;6.70;5.00;;;8.10;45.40;;;;;;5046166;28;20500;-50
2023/03/21 00:18:16;;;;;;;6.70;5.40;;;8.10;43.90;;;;;;5052132;28;20454;-51
2023/03/21 00:20:46;;;;;;;11.30;5.60;;;8.10;38.10;;;;;;5051992;28;20493;-51
2023/03/21 00:23:14;;;;;;;10.90;5.30;;;8.10;37.20;;;;;;5048156;28;21065;-52
2023/03/21 00:25:41;;;;;;;12.07;6.13;;;8.10;34.60;;;;;;5052320;28;20513;-53
2023/03/21 00:28:07;;;;;;;7.87;5.37;;;8.10;29.00;;;;;;5043132;28;20487;-51
2023/03/21 00:30:34;;;;;;;7.30;5.40;;;8.00;30.50;;;;;;5043211;28;20521;-53
2023/03/21 00:33:00;;;;;;;14.40;6.10;;;8.10;37.60;;;;;;5051777;28;20522;-51
2023/03/21 00:35:27;;;;;;;12.17;5.70;;;8.00;40.40;;;;;;5051139;28;20515;-51
2023/03/21 00:37:53;;;;;;;9.37;5.70;;;8.00;44.60;;;;;;5051996;28;21045;-52
2023/03/21 00:40:21;;;;;;;12.37;5.93;;;8.00;37.10;;;;;;5053488;28;20866;-52
2023/03/21 00:42:48;;;;;;;10.23;6.30;;;8.00;39.40;;;;;;5051436;28;20517;-52
2023/03/21 00:45:15;;;;;;;6.57;5.50;;;8.00;41.00;;;;;;5045572;28;20507;-51
2023/03/21 00:47:42;;;;;;;9.30;6.20;;;8.00;43.10;;;;;;5050948;28;20466;-52
2023/03/21 00:50:10;;;;;;;11.00;6.17;;;8.00;43.80;;;;;;5047635;28;20462;-51
2023/03/21 00:52:37;;;;;;;11.10;6.10;;;8.00;40.90;;;;;;5050162;28;20486;-50
2023/03/21 00:55:04;;;;;;;10.90;6.43;;;8.00;37.40;;;;;;5043587;28;20464;-52
2023/03/21 00:57:32;;;;;;;9.77;6.17;;;8.00;29.80;;;;;;5044993;28;20900;-51
2023/03/21 00:59:59;;;;;;;11.00;5.80;;;7.90;38.90;;;;;;5053173;28;20498;-53
2023/03/21 01:02:26;;;;;;;6.73;6.10;;;7.90;37.40;;;;;;5044792;28;20561;-51
2023/03/21 01:04:53;;;;;;;7.87;5.97;;;7.90;34.90;;;;;;5051645;28;20465;-52
2023/03/21 01:07:19;;;;;;;9.83;5.70;;;7.90;37.90;;;;;;5046768;28;20497;-52
2023/03/21 01:09:46;;;;;;;9.93;5.40;;;7.90;35.20;;;;;;5048353;28;20501;-51
2023/03/21 01:12:12;;;;;;;5.33;4.90;;;7.90;27.60;;;;;;5047606;28;20517;-52
2023/03/21 01:14:40;;;;;;;6.70;6.00;;;7.80;26.40;;;;;;5052042;28;20517;-52
2023/03/21 01:17:07;;;;;;;8.60;6.07;;;7.80;99.90;;;;;;5051447;28;20818;-52
2023/03/21 01:19:34;;;;;;;7.70;5.70;;;7.80;99.90;;;;;;5047030;28;20509;-54
2023/03/21 01:22:01;;;;;;;6.40;5.67;;;7.70;99.90;;;;;;5047126;28;20483;-51
2023/03/21 01:24:28;;;;;;;7.10;5.67;;;7.70;99.90;;;;;;5041808;28;20545;-52
2023/03/21 01:26:54;;;;;;;6.60;5.70;;;7.70;99.90;;;;;;5050377;28;20499;-51
2023/03/21 01:29:21;;;;;;;11.83;6.10;;;7.70;99.90;;;;;;5045278;28;20477;-52
2023/03/21 01:31:49;;;;;;;9.80;6.30;;;7.70;99.90;;;;;;5053543;28;20505;-51
2023/03/21 01:34:15;;;;;;;10.20;7.07;;;7.70;99.90;;;;;;5053065;28;20597;-51
2023/03/21 01:36:42;;;;;;;10.80;6.40;;;7.70;99.90;;;;;;5043591;28;20459;-53
2023/03/21 01:39:08;;;;;;;10.80;7.17;;;7.70;99.90;;;;;;5044616;28;20474;-52
2023/03/21 01:41:38;;;;;;;12.70;7.83;;;7.80;75.50;;;;;;5036654;28;20448;-52
2023/03/21 01:44:05;;;;;;;9.27;7.50;;;7.70;21.20;;;;;;5053101;28;20447;-52
2023/03/21 01:46:40;;;;;;;12.33;9.20;;;7.70;20.80;;;;;;5045887;28;20952;-52
2023/03/21 01:49:14;;;;;;;8.80;7.27;;;7.70;87.50;;;;;;5041654;28;20439;-51
2023/03/21 01:51:46;;;;;;;12.07;7.53;;;7.70;99.90;;;;;;5048033;28;20541;-52
2023/03/21 01:54:17;;;;;;;11.87;7.90;;;7.70;99.90;;;;;;5046319;28;20591;-51
2023/03/21 01:56:46;;;;;;;12.23;8.90;;;7.70;99.90;;;;;;5039338;28;20489;-52
2023/03/21 01:59:20;;;;;;;15.63;10.03;;;7.70;99.90;;;;;;5058142;28;20451;-52
2023/03/21 02:01:48;;;;;;;12.13;9.83;;;7.70;99.90;;;;;;5052866;28;20470;-53
2023/03/21 02:04:21;;;;;;;11.23;10.13;;;7.70;99.90;;;;;;5048001;28;20496;-53
2023/03/21 02:06:52;;;;;;;11.27;9.67;;;7.70;99.90;;;;;;5046418;28;20964;-53
2023/03/21 02:09:22;;;;;;;16.07;9.90;;;7.70;99.90;;;;;;5047596;28;20467;-53
2023/03/21 02:11:49;;;;;;;11.30;10.10;;;7.70;99.90;;;;;;5041149;28;20476;-51
2023/03/21 02:14:18;;;;;;;14.10;9.60;;;7.70;99.90;;;;;;5032469;28;20467;-52
2023/03/21 02:16:52;;;;;;;15.37;9.80;;;7.70;99.90;;;;;;5042793;28;20508;-51
2023/03/21 02:19:51;;;;;;;11.30;10.20;;;7.70;99.90;;;;;;5038997;28;20501;-51
2023/03/21 02:22:50;;;;;;;11.70;10.30;;;7.70;99.90;;;;;;5011041;28;20483;-53
2023/03/21 02:25:49;;;;;;;10.83;9.73;;;7.70;99.90;;;;;;5002554;28;20499;-53
2023/03/21 02:28:23;;;;;;;12.20;10.63;;;7.60;99.90;;;;;;5043199;28;20549;-52
2023/03/21 02:31:17;;;;;;;12.10;10.80;;;7.60;99.90;;;;;;5047562;28;20458;-53
2023/03/21 02:34:13;;;;;;;13.77;10.83;;;7.60;99.90;;;;;;5047986;28;20493;-53
2023/03/21 02:36:55;;;;;;;12.87;9.90;;;7.60;99.90;;;;;;5042520;28;20455;-52
2023/03/21 02:39:26;;;;;;;13.90;10.40;;;7.60;99.90;;;;;;5049507;28;20454;-51
2023/03/21 02:42:03;;;;;;;11.80;10.60;;;7.60;99.90;;;;;;5044247;28;20488;-53
2023/03/21 02:44:39;;;;;;;14.37;11.33;;;7.60;99.90;;;;;;5049216;28;20461;-52
2023/03/21 02:47:11;;;;;;;12.60;11.33;;;7.60;99.90;;;;;;5040168;28;20462;-53
2023/03/21 02:49:44;;;;;;;12.47;10.43;;;7.50;99.90;;;;;;5043279;28;20493;-52
2023/03/21 02:52:16;;;;;;;12.10;10.90;;;7.60;99.90;;;;;;5044088;28;20648;-52
2023/03/21 02:54:44;;;;;;;14.63;11.23;;;7.50;99.90;;;;;;5034539;28;20483;-53
2023/03/21 02:57:11;;;;;;;14.33;11.80;;;7.50;99.90;;;;;;5038244;28;20459;-53
2023/03/21 02:59:39;;;;;;;14.73;11.67;;;7.50;99.90;;;;;;5039992;28;20509;-52
2023/03/21 03:02:06;;;;;;;16.23;12.13;;;7.50;99.90;;;;;;5041747;28;20486;-53
2023/03/21 03:04:33;;;;;;;11.60;10.50;;;7.60;99.90;;;;;;5045741;28;20512;-53
2023/03/21 03:07:21;;;;;;;13.70;12.20;;;7.60;99.90;;;;;;5049561;28;20489;-53
2023/03/21 03:10:01;;;;;;;20.10;13.93;;;7.60;99.90;;;;;;5040711;28;20451;-53
2023/03/21 03:12:34;;;;;;;14.90;13.23;;;7.60;99.90;;;;;;5047904;28;20489;-52
2023/03/21 03:15:16;;;;;;;14.77;13.10;;;7.60;99.90;;;;;;5043004;28;20482;-53
2023/03/21 03:17:54;;;;;;;16.13;13.30;;;7.60;99.90;;;;;;5048453;28;20462;-51
2023/03/21 03:20:28;;;;;;;18.50;14.70;;;7.60;99.90;;;;;;5047836;28;20511;-53
2023/03/21 03:23:05;;;;;;;19.90;15.43;;;7.60;99.90;;;;;;5045227;28;20486;-52
2023/03/21 03:25:37;;;;;;;19.77;15.60;;;7.60;99.90;;;;;;5043785;28;20457;-51
2023/03/21 03:28:05;;;;;;;18.43;15.23;;;7.60;99.90;;;;;;5041544;28;20455;-52
2023/03/21 03:30:32;;;;;;;16.90;15.27;;;7.50;99.90;;;;;;5045933;28;20454;-54
2023/03/21 03:33:02;;;;;;;17.50;15.70;;;7.50;99.90;;;;;;5051126;28;20478;-52
2023/03/21 03:35:30;;;;;;;18.00;15.60;;;7.50;99.90;;;;;;5047628;28;20498;-53
2023/03/21 03:38:02;;;;;;;17.50;15.80;;;7.50;99.90;;;;;;5041602;28;21133;-53
2023/03/21 03:40:31;;;;;;;17.33;15.70;;;7.50;99.90;;;;;;5043159;28;20493;-53
2023/03/21 03:43:04;;;;;;;18.20;16.40;;;7.50;99.90;;;;;;5044100;28;20541;-53
2023/03/21 03:45:37;;;;;;;22.40;16.83;;;7.50;99.90;;;;;;5039259;28;20475;-53
2023/03/21 03:48:07;;;;;;;20.23;18.03;;;7.50;99.90;;;;;;5043130;28;20497;-53
2023/03/21 03:50:39;;;;;;;20.97;18.97;;;7.50;99.90;;;;;;5039497;28;20460;-51
2023/03/21 03:53:17;;;;;;;20.53;18.43;;;7.50;99.90;;;;;;5041894;28;20478;-53
2023/03/21 03:55:44;;;;;;;20.27;18.20;;;7.50;99.90;;;;;;5048704;28;20523;-53
2023/03/21 03:58:11;;;;;;;22.83;18.87;;;7.50;99.90;;;;;;5044749;28;20665;-51
2023/03/21 04:00:39;;;;;;;25.30;19.00;;;7.50;99.90;;;;;;5035790;28;20521;-53
2023/03/21 04:03:08;;;;;;;22.13;19.97;;;7.50;99.90;;;;;;5040058;28;20991;-51
2023/03/21 04:05:35;;;;;;;22.53;19.37;;;7.40;99.90;;;;;;5040844;28;20490;-51
2023/03/21 04:08:02;;;;;;;25.30;20.53;;;7.50;99.90;;;;;;5049840;28;20465;-51
2023/03/21 04:10:30;;;;;;;25.33;21.40;;;7.40;99.90;;;;;;5049252;28;20458;-52
2023/03/21 04:12:56;;;;;;;30.60;20.73;;;7.50;99.90;;;;;;5079083;22;20488;-51
2023/03/21 04:15:23;;;;;;;29.30;21.10;;;7.50;99.90;;;;;;5090901;28;20485;-51
2023/03/21 04:17:50;;;;;;;26.37;20.60;;;7.40;99.90;;;;;;5091563;28;20444;-51
2023/03/21 04:20:17;;;;;;;22.63;19.93;;;7.40;99.90;;;;;;5090677;28;20457;-51
2023/03/21 04:22:44;;;;;;;21.57;19.47;;;7.40;99.90;;;;;;5080383;28;20461;-51
2023/03/21 04:25:12;;;;;;;24.13;21.60;;;7.40;99.90;;;;;;5085216;28;20484;-51
2023/03/21 04:27:40;;;;;;;24.10;21.70;;;7.50;99.90;;;;;;5091183;28;20448;-51
2023/03/21 04:30:11;;;;;;;27.33;22.17;;;7.40;99.90;;;;;;5084807;28;20449;-51
2023/03/21 04:32:38;;;;;;;21.20;19.23;;;7.40;99.90;;;;;;5085331;28;20456;-51
2023/03/21 04:35:05;;;;;;;24.93;21.40;;;7.40;99.90;;;;;;5078093;28;20484;-52
2023/03/21 04:37:32;;;;;;;25.40;21.50;;;7.40;99.90;;;;;;5087170;28;20465;-52
2023/03/21 04:39:59;;;;;;;22.87;20.43;;;7.40;99.90;;;;;;5092939;28;20556;-51
2023/03/21 04:42:26;;;;;;;25.13;22.40;;;7.40;99.90;;;;;;5074582;28;20460;-51
2023/03/21 04:44:54;;;;;;;28.37;22.87;;;7.40;99.90;;;;;;5091039;28;20457;-52
2023/03/21 04:47:21;;;;;;;25.17;22.57;;;7.40;99.90;;;;;;5090931;28;20877;-51
2023/03/21 04:49:47;;;;;;;25.50;23.00;;;7.40;99.90;;;;;;5085147;28;20466;-51
2023/03/21 04:52:14;;;;;;;26.60;23.90;;;7.40;99.90;;;;;;5086443;28;20567;-52
2023/03/21 04:54:41;;;;;;;27.00;23.30;;;7.40;99.90;;;;;;5091251;28;20583;-51
2023/03/21 04:57:08;;;;;;;26.80;23.63;;;7.40;99.90;;;;;;5091823;28;21106;-50
2023/03/21 04:59:35;;;;;;;26.80;23.90;;;7.40;99.90;;;;;;5094367;28;20457;-51
2023/03/21 05:02:03;;;;;;;25.57;22.90;;;7.40;99.90;;;;;;5094278;28;20498;-51
2023/03/21 05:04:30;;;;;;;35.77;24.67;;;7.30;99.90;;;;;;5075268;28;20473;-51
2023/03/21 05:06:57;;;;;;;36.43;24.70;;;7.40;99.90;;;;;;5083051;28;20464;-51
2023/03/21 05:09:24;;;;;;;27.47;23.43;;;7.30;99.90;;;;;;5094367;28;20491;-51
2023/03/21 05:11:51;;;;;;;29.13;24.67;;;7.40;99.90;;;;;;5094440;28;20445;-51
2023/03/21 05:14:20;;;;;;;29.70;23.27;;;7.40;99.90;;;;;;5088494;28;20522;-52
2023/03/21 05:16:51;;;;;;;28.70;24.00;;;7.40;99.90;;;;;;5090036;28;20585;-52
2023/03/21 05:19:21;;;;;;;31.20;23.40;;;7.40;99.90;;;;;;5075737;28;20460;-52
2023/03/21 05:21:48;;;;;;;31.03;23.63;;;7.40;99.90;;;;;;5077976;28;20461;-51
2023/03/21 05:24:17;;;;;;;27.77;23.73;;;7.40;99.90;;;;;;5083522;28;20817;-50
2023/03/21 05:26:49;;;;;;;30.80;24.27;;;7.40;99.90;;;;;;5088519;28;20460;-51
2023/03/21 05:29:17;;;;;;;31.60;25.73;;;7.40;99.90;;;;;;5090696;28;20544;-52
2023/03/21 05:31:44;;;;;;;28.30;25.13;;;7.40;99.90;;;;;;5081594;28;20464;-52
2023/03/21 05:34:11;;;;;;;26.60;23.90;;;7.40;99.90;;;;;;5092194;28;20476;-51
2023/03/21 05:36:39;;;;;;;28.47;25.33;;;7.50;99.90;;;;;;5084413;28;20464;-52
2023/03/21 05:39:06;;;;;;;30.43;26.57;;;7.40;99.90;;;;;;5088816;28;20455;-59
2023/03/21 05:41:33;;;;;;;29.40;24.70;;;7.50;99.90;;;;;;5084065;28;20461;-51
2023/03/21 05:44:00;;;;;;;29.50;24.80;;;7.50;99.90;;;;;;5085822;28;21012;-51
2023/03/21 05:46:26;;;;;;;26.47;23.80;;;7.40;99.90;;;;;;5085246;28;20569;-51
2023/03/21 05:48:53;;;;;;;28.60;25.53;;;7.40;99.90;;;;;;5088674;28;20521;-51
2023/03/21 05:51:20;;;;;;;31.93;24.00;;;7.50;99.00;;;;;;5080468;28;20572;-51
2023/03/21 05:53:48;;;;;;;36.50;25.03;;;7.50;98.80;;;;;;5087463;28;20472;-51
2023/03/21 05:56:15;;;;;;;27.40;24.47;;;7.40;93.00;;;;;;5080064;28;20874;-50
2023/03/21 05:58:41;;;;;;;29.97;26.03;;;7.50;88.40;;;;;;5089452;28;20484;-50
2023/03/21 06:01:08;;;;;;;33.93;26.63;;;7.60;87.70;;;;;;5085074;28;20460;-51
2023/03/21 06:03:35;;;;;;;28.73;25.10;;;7.50;85.90;;;;;;5086955;28;20478;-50
2023/03/21 06:06:02;;;;;;;27.37;24.40;;;7.50;85.40;;;;;;5085242;28;20467;-51
2023/03/21 06:08:29;;;;;;;30.80;26.03;;;7.60;85.90;;;;;;5089016;28;20457;-52
2023/03/21 06:10:57;;;;;;;33.33;26.87;;;7.60;86.70;;;;;;5079864;28;20457;-50
2023/03/21 06:13:23;;;;;;;30.23;26.00;;;7.60;86.90;;;;;;5086833;28;20527;-51
2023/03/21 06:15:50;;;;;;;33.53;26.57;;;7.50;83.20;;;;;;5090873;28;21897;-52
2023/03/21 06:18:17;;;;;;;32.53;27.07;;;7.50;84.80;;;;;;5074022;28;20515;-53
2023/03/21 06:20:43;;;;;;;35.13;26.20;;;7.50;86.90;;;;;;5082750;28;20965;-51
2023/03/21 06:23:10;;;;;;;28.03;25.03;;;7.50;87.50;;;;;;5086528;28;20484;-51
2023/03/21 06:25:36;;;;;;;30.20;24.10;;;7.50;86.10;;;;;;5088961;28;20949;-53
2023/03/21 06:28:04;;;;;;;33.50;24.57;;;7.50;85.40;;;;;;5091759;28;20465;-52
2023/03/21 06:30:31;;;;;;;29.93;25.87;;;7.50;83.90;;;;;;5083211;28;20553;-51
2023/03/21 06:32:58;;;;;;;39.57;25.53;;;7.50;84.60;;;;;;5085717;28;21005;-52
2023/03/21 06:35:24;;;;;;;29.63;24.90;;;7.60;83.00;;;;;;5083360;28;20484;-51
2023/03/21 06:37:51;;;;;;;29.43;25.60;;;7.60;83.70;;;;;;5089360;28;20467;-51
2023/03/21 06:40:18;;;;;;;31.50;25.00;;;7.60;85.00;;;;;;5087278;28;20444;-51
2023/03/21 06:42:44;;;;;;;31.07;24.90;;;7.60;86.90;;;;;;5092073;28;20453;-52
2023/03/21 06:45:12;;;;;;;30.97;25.80;;;7.70;84.40;;;;;;5085560;28;20458;-51
2023/03/21 06:47:39;;;;;;;36.13;28.03;;;7.60;84.30;;;;;;5081709;28;20505;-52
2023/03/21 06:50:06;;;;;;;31.20;25.40;;;7.60;85.90;;;;;;5090361;28;20502;-51
2023/03/21 06:52:33;;;;;;;32.90;26.70;;;7.60;78.30;;;;;;5089648;28;20522;-52
2023/03/21 06:55:00;;;;;;;29.97;24.53;;;7.60;73.70;;;;;;5087616;28;20480;-51
2023/03/21 06:57:26;;;;;;;36.43;25.97;;;7.60;71.00;;;;;;5089158;28;20456;-51
2023/03/21 06:59:53;;;;;;;29.30;26.10;;;7.60;66.90;;;;;;5086525;28;20521;-51
2023/03/21 07:02:21;;;;;;;36.50;26.50;;;7.70;65.10;;;;;;5093471;28;20457;-52
2023/03/21 07:04:47;;;;;;;30.57;25.80;;;7.70;63.50;;;;;;5084437;28;20477;-51
2023/03/21 07:07:14;;;;;;;34.63;25.73;;;7.60;63.00;;;;;;5081970;28;20464;-51
2023/03/21 07:09:41;;;;;;;34.20;26.20;;;7.60;59.30;;;;;;5084361;28;20470;-51
2023/03/21 07:12:08;;;;;;;29.53;26.40;;;7.60;58.50;;;;;;5081145;28;20499;-51
2023/03/21 07:14:35;;;;;;;32.57;26.10;;;7.60;53.10;;;;;;5073646;28;20492;-51
2023/03/21 07:17:02;;;;;;;30.27;26.97;;;7.60;52.00;;;;;;5077228;28;20951;-52
2023/03/21 07:19:30;;;;;;;37.30;28.77;;;7.70;50.10;;;;;;5078984;28;20506;-51
2023/03/21 07:21:56;;;;;;;33.40;26.83;;;7.60;49.70;;;;;;5074316;28;20453;-52
2023/03/21 07:24:23;;;;;;;32.33;27.03;;;7.60;48.60;;;;;;5074009;28;20524;-51
2023/03/21 07:26:49;;;;;;;31.27;25.90;;;7.70;49.80;;;;;;5082669;28;20467;-52
2023/03/21 07:29:16;;;;;;;30.83;27.17;;;7.70;47.90;;;;;;5082805;28;20855;-52
2023/03/21 07:31:43;;;;;;;33.10;27.20;;;7.70;47.00;;;;;;5075071;28;20931;-52
2023/03/21 07:34:09;;;;;;;30.90;27.27;;;7.80;46.30;;;;;;5083296;28;20496;-51
2023/03/21 07:36:37;;;;;;;40.60;27.80;;;7.80;48.10;;;;;;5076511;28;20477;-51
2023/03/21 07:39:05;;;;;;;34.77;30.33;;;7.80;50.30;;;;;;5079422;28;20464;-51
2023/03/21 07:41:31;;;;;;;38.00;26.90;;;7.90;49.80;;;;;;5081896;28;20846;-51
2023/03/21 07:43:58;;;;;;;36.10;27.90;;;7.80;52.60;;;;;;5074076;28;20481;-51
2023/03/21 07:46:25;;;;;;;31.53;27.93;;;7.90;54.60;;;;;;5084145;28;20518;-51
2023/03/21 07:48:51;;;;;;;40.80;26.93;;;7.80;55.90;;;;;;5086226;28;20457;-51
2023/03/21 07:51:18;;;;;;;31.80;27.93;;;7.90;55.10;;;;;;5076647;28;20453;-51
2023/03/21 07:53:47;;;;;;;32.57;29.10;;;7.80;54.10;;;;;;5084778;28;20476;-52
2023/03/21 07:56:14;;;;;;;35.03;27.87;;;7.80;53.90;;;;;;5081355;28;20499;-51
2023/03/21 07:58:41;;;;;;;34.73;28.00;;;7.80;51.70;;;;;;5091886;28;20467;-51
2023/03/21 08:01:07;;;;;;;32.37;28.30;;;7.80;50.60;;;;;;5085340;28;21024;-51
2023/03/21 08:03:34;;;;;;;35.67;28.13;;;7.90;49.20;;;;;;5089661;28;20891;-51
2023/03/21 08:06:01;;;;;;;32.53;28.90;;;7.90;48.60;;;;;;5086281;28;20459;-51
2023/03/21 08:08:28;;;;;;;38.20;30.60;;;7.90;49.20;;;;;;5086302;28;20880;-51
2023/03/21 08:10:55;;;;;;;34.10;28.67;;;7.90;49.70;;;;;;5089585;28;20522;-63
2023/03/21 08:13:22;;;;;;;34.20;29.33;;;8.00;48.40;;;;;;5088678;28;20491;-50
2023/03/21 08:15:49;;;;;;;35.93;27.73;;;7.90;47.50;;;;;;5089422;28;20484;-52
2023/03/21 08:18:15;;;;;;;36.90;30.00;;;8.00;46.10;;;;;;5089206;28;20557;-51
2023/03/21 08:20:42;;;;;;;38.33;29.40;;;8.00;47.10;;;;;;5091081;28;20522;-51
2023/03/21 08:23:09;;;;;;;41.43;30.17;;;8.00;46.40;;;;;;5089664;28;20480;-51
2023/03/21 08:25:36;;;;;;;33.00;29.43;;;8.00;45.80;;;;;;5096258;28;20497;-51
2023/03/21 08:28:05;;;;;;;37.20;28.37;;;8.00;44.10;;;;;;5091404;28;20460;-53
2023/03/21 08:30:31;;;;;;;35.40;29.83;;;8.00;43.10;;;;;;5083407;28;20504;-51
2023/03/21 08:32:59;;;;;;;35.33;28.30;;;8.10;39.70;;;;;;5110327;28;20502;-52
2023/03/21 08:35:26;;;;;;;34.10;29.97;;;8.00;39.50;;;;;;5107344;28;20984;-52
2023/03/21 08:37:53;;;;;;;42.33;28.73;;;8.10;38.30;;;;;;5100817;28;20989;-56
2023/03/21 08:40:20;;;;;;;34.73;29.37;;;8.10;39.70;;;;;;5087388;28;20457;-51
2023/03/21 08:42:47;;;;;;;39.10;31.03;;;8.10;40.10;;;;;;5099429;28;20487;-52
2023/03/21 08:45:16;;;;;;;36.37;29.90;;;8.10;37.50;;;;;;5098692;28;20460;-50
2023/03/21 08:47:43;;;;;;;35.37;29.07;;;8.20;38.50;;;;;;5086716;28;20465;-50
2023/03/21 08:50:14;;;;;;;34.80;29.57;;;8.20;36.90;;;;;;5090669;28;20945;-50
2023/03/21 08:52:41;;;;;;;36.13;28.70;;;8.20;36.30;;;;;;5075070;28;20479;-50
2023/03/21 08:55:08;;;;;;;31.10;26.47;;;8.20;35.90;;;;;;5081327;28;20474;-53
2023/03/21 08:57:35;;;;;;;38.70;29.07;;;8.20;34.70;;;;;;5089486;28;20475;-53
2023/03/21 09:00:06;;;;;;;33.03;27.50;;;8.20;34.60;;;;;;5096222;28;21034;-53
2023/03/21 09:02:34;;;;;;;31.33;26.50;;;8.20;33.00;;;;;;5095528;28;20439;-52
2023/03/21 09:05:01;;;;;;;28.90;25.40;;;8.30;32.80;;;;;;5102810;28;20453;-52
2023/03/21 09:07:28;;;;;;;28.83;24.73;;;8.30;33.10;;;;;;5095220;28;20444;-53
2023/03/21 09:09:55;;;;;;;29.93;24.93;;;8.30;32.60;;;;;;5094138;28;20464;-54
2023/03/21 09:12:21;;;;;;;32.03;24.43;;;8.30;33.40;;;;;;5090406;28;20996;-53
2023/03/21 09:14:48;;;;;;;31.43;25.23;;;8.30;36.30;;;;;;5093187;28;20625;-52
2023/03/21 09:17:15;;;;;;;30.90;25.90;;;8.30;37.60;;;;;;5094199;28;20492;-52
2023/03/21 09:19:45;;;;;;;33.20;25.40;;;8.40;36.50;;;;;;5094065;28;20510;-52
2023/03/21 09:22:16;;;;;;;33.23;25.33;;;8.40;39.50;;;;;;5092969;28;20460;-52
2023/03/21 09:24:45;;;;;;;29.67;26.30;;;8.50;39.30;;;;;;5092080;28;20529;-52
2023/03/21 09:27:12;;;;;;;31.70;25.27;;;8.60;38.30;;;;;;5084661;28;20945;-54
2023/03/21 09:29:39;;;;;;;33.07;24.63;;;8.60;38.00;;;;;;5088105;28;20464;-53
2023/03/21 09:32:07;;;;;;;38.13;25.97;;;8.70;40.70;;;;;;5089874;28;20461;-52
2023/03/21 09:34:35;;;;;;;31.87;24.63;;;8.80;43.70;;;;;;5080728;28;20481;-53
2023/03/21 09:37:12;;;;;;;26.20;22.83;;;8.80;47.20;;;;;;5085590;28;20559;-53
2023/03/21 09:39:39;;;;;;;29.83;24.50;;;8.80;50.70;;;;;;5085809;28;20912;-53
2023/03/21 09:42:24;;;;;;;34.20;24.90;;;8.70;49.80;;;;;;5086715;28;20457;-53
2023/03/21 09:45:00;;;;;;;31.63;24.83;;;8.70;50.20;;;;;;5088292;28;20995;-53
2023/03/21 09:47:33;;;;;;;29.73;21.70;;;8.70;47.50;;;;;;5086699;28;20544;-52
2023/03/21 09:50:03;;;;;;;26.73;23.60;;;8.80;43.50;;;;;;5079510;28;20530;-53
2023/03/21 09:52:42;;;;;;;24.80;22.13;;;8.90;42.00;;;;;;5086687;28;20460;-52
2023/03/21 09:55:18;;;;;;;28.17;21.17;;;8.90;45.80;;;;;;5084126;28;20467;-52
2023/03/21 09:57:47;;;;;;;26.57;20.83;;;8.90;52.30;;;;;;5081625;28;20546;-52
2023/03/21 10:00:19;;;;;;;36.70;21.07;;;8.90;54.60;;;;;;5086558;28;20463;-51
2023/03/21 10:02:50;;;;;;;27.23;20.97;;;8.90;53.80;;;;;;5090672;28;20464;-51
2023/03/21 10:05:19;;;;;;;23.87;21.30;;;9.00;53.50;;;;;;5084464;28;20461;-51
2023/03/21 10:07:52;;;;;;;24.53;21.27;;;9.10;55.40;;;;;;5087454;28;20461;-51
2023/03/21 10:10:25;;;;;;;25.10;22.20;;;9.20;54.10;;;;;;5086457;28;20464;-51
2023/03/21 10:12:53;;;;;;;32.93;20.43;;;9.10;66.20;;;;;;5084614;28;20496;-50
2023/03/21 10:15:22;;;;;;;26.80;20.37;;;9.10;68.70;;;;;;5082945;28;20899;-52
2023/03/21 10:17:55;;;;;;;25.50;21.27;;;9.10;66.00;;;;;;5089775;28;20468;-52
2023/03/21 10:20:25;;;;;;;23.57;20.40;;;9.20;63.50;;;;;;5086168;28;20537;-53
2023/03/21 10:22:55;;;;;;;27.40;20.70;;;9.30;61.50;;;;;;5084266;28;20484;-52
2023/03/21 10:25:28;;;;;;;24.90;19.80;;;9.30;70.70;;;;;;5081891;28;20997;-53
2023/03/21 10:27:54;;;;;;;23.23;20.47;;;9.30;69.00;;;;;;5087831;28;20496;-53
2023/03/21 10:30:29;;;;;;;24.80;21.47;;;9.30;64.60;;;;;;5082525;28;21131;-52
2023/03/21 10:32:58;;;;;;;22.53;19.13;;;9.40;61.20;;;;;;5082230;28;20476;-52
2023/03/21 10:35:25;;;;;;;23.50;19.43;;;9.40;67.80;;;;;;5084239;28;20483;-52
2023/03/21 10:37:53;;;;;;;22.57;20.07;;;9.40;69.60;;;;;;5083382;28;20707;-53
2023/03/21 10:40:20;;;;;;;21.87;18.63;;;9.50;71.80;;;;;;5087619;28;20517;-54
2023/03/21 10:42:46;;;;;;;25.17;20.27;;;9.40;71.40;;;;;;5091372;28;20445;-53
2023/03/21 10:45:17;;;;;;;25.83;19.57;;;9.40;71.90;;;;;;5089366;28;20518;-53
2023/03/21 10:47:47;;;;;;;25.10;19.80;;;9.50;73.40;;;;;;5084191;28;20469;-52
2023/03/21 10:50:16;;;;;;;23.13;20.07;;;9.30;74.80;;;;;;5085242;28;20469;-53
2023/03/21 10:52:47;;;;;;;26.93;20.50;;;9.40;73.60;;;;;;5085344;28;20455;-54
2023/03/21 10:55:27;;;;;;;27.13;20.70;;;9.40;72.20;;;;;;5084575;28;20461;-53
2023/03/21 10:57:57;;;;;;;26.37;20.17;;;9.40;69.40;;;;;;5087747;28;20456;-53
2023/03/21 11:00:30;;;;;;;22.80;19.33;;;9.50;70.10;;;;;;5087367;28;21131;-53
2023/03/21 11:02:58;;;;;;;21.10;18.80;;;9.50;75.00;;;;;;5085298;28;20564;-53
2023/03/21 11:05:32;;;;;;;23.37;19.90;;;9.60;76.50;;;;;;5080152;28;20964;-53
2023/03/21 11:08:02;;;;;;;27.00;19.70;;;9.60;83.80;;;;;;5089886;28;20491;-53
2023/03/21 11:10:33;;;;;;;28.10;19.10;;;9.60;81.00;;;;;;5084874;28;20551;-53
2023/03/21 11:13:05;;;;;;;21.77;19.27;;;9.80;86.00;;;;;;5088830;28;20492;-52
2023/03/21 11:15:37;;;;;;;21.43;18.20;;;9.70;94.40;;;;;;5087318;28;20543;-53
2023/03/21 11:18:17;;;;;;;20.87;17.63;;;9.80;99.90;;;;;;5085377;28;20456;-54
2023/03/21 11:20:49;;;;;;;24.57;18.00;;;9.70;99.90;;;;;;5079382;28;20478;-52
2023/03/21 11:23:16;;;;;;;24.13;19.73;;;9.80;98.80;;;;;;5085668;28;20477;-52
2023/03/21 11:25:48;;;;;;;25.03;17.23;;;9.90;99.90;;;;;;5079409;28;20547;-53
2023/03/21 11:28:18;;;;;;;20.03;16.97;;;10.00;99.90;;;;;;5084754;28;20464;-53
2023/03/21 11:30:53;;;;;;;21.20;16.00;;;10.00;99.90;;;;;;5089681;28;20456;-54
2023/03/21 11:33:21;;;;;;;21.47;15.97;;;10.20;99.90;;;;;;5085637;28;20484;-52
2023/03/21 11:35:59;;;;;;;18.27;14.90;;;10.10;99.90;;;;;;5082876;28;20457;-53
2023/03/21 11:38:29;;;;;;;20.80;17.57;;;10.20;99.90;;;;;;5080293;28;20551;-54
2023/03/21 11:41:00;;;;;;;23.90;18.23;;;10.30;99.90;;;;;;5083674;28;20452;-53
2023/03/21 11:43:29;;;;;;;17.80;15.23;;;10.40;99.90;;;;;;5091481;28;20850;-53
2023/03/21 11:45:58;;;;;;;18.67;16.40;;;10.50;99.90;;;;;;5079879;28;20457;-53
2023/03/21 11:48:25;;;;;;;19.33;15.50;;;10.50;99.90;;;;;;5090614;28;20468;-53
2023/03/21 11:50:58;;;;;;;22.40;16.70;;;10.60;99.90;;;;;;5078902;28;21028;-53
2023/03/21 11:53:35;;;;;;;19.20;15.87;;;10.70;99.90;;;;;;5085590;28;20562;-52
2023/03/21 11:56:22;;;;;;;18.13;15.30;;;10.60;99.90;;;;;;5089093;28;20487;-53
2023/03/21 11:59:02;;;;;;;18.20;15.70;;;10.70;99.90;;;;;;5089821;28;20452;-52
2023/03/21 12:01:35;;;;;;;17.20;14.60;;;10.70;99.90;;;;;;5087016;28;20459;-52
2023/03/21 12:04:19;;;;;;;19.37;14.73;;;10.80;99.90;;;;;;5086615;28;20852;-53
2023/03/21 12:06:53;;;;;;;19.27;16.00;;;10.70;99.90;;;;;;5094022;28;20926;-52
2023/03/21 12:09:32;;;;;;;22.03;15.90;;;10.70;99.90;;;;;;5090102;28;20488;-52
2023/03/21 12:12:09;;;;;;;19.17;15.50;;;10.70;99.90;;;;;;5081152;28;20460;-53
2023/03/21 12:14:45;;;;;;;20.03;15.33;;;10.70;99.90;;;;;;5091720;28;21000;-52
2023/03/21 12:17:24;;;;;;;16.73;13.50;;;10.80;99.90;;;;;;5088611;28;20538;-53
2023/03/21 12:20:11;;;;;;;16.47;14.60;;;10.90;99.90;;;;;;5086062;28;20452;-53
2023/03/21 12:22:49;;;;;;;16.37;14.67;;;10.90;99.90;;;;;;5065320;28;20460;-52
2023/03/21 12:25:21;;;;;;;14.07;12.63;;;10.90;99.90;;;;;;5079354;28;20542;-54
2023/03/21 12:27:56;;;;;;;16.33;13.83;;;11.00;99.90;;;;;;5090246;28;20872;-52
2023/03/21 12:30:32;;;;;;;16.30;14.60;;;11.00;99.90;;;;;;5083661;28;20851;-52
2023/03/21 12:33:14;;;;;;;15.53;13.00;;;11.00;99.90;;;;;;5079646;28;20994;-53
2023/03/21 12:35:59;;;;;;;15.03;13.40;;;11.00;99.90;;;;;;5086835;28;20462;-51
2023/03/21 12:38:35;;;;;;;15.20;12.27;;;11.00;99.90;;;;;;5087118;28;20456;-53
2023/03/21 12:41:15;;;;;;;15.90;13.57;;;11.00;99.90;;;;;;5089863;28;20455;-53
2023/03/21 12:43:47;;;;;;;24.20;12.43;;;11.00;99.90;;;;;;5092289;28;20488;-53
2023/03/21 12:46:21;;;;;;;12.63;11.40;;;11.20;99.90;;;;;;5085139;28;20464;-54
2023/03/21 12:48:52;;;;;;;17.10;11.53;;;11.40;99.90;;;;;;5086270;28;20457;-53
2023/03/21 12:51:22;;;;;;;13.07;11.70;;;11.50;99.90;;;;;;5084802;28;20515;-54